Consulta los datos en tiempo real de la estación municipal de Cercs - St.Jordi
| Hora UTC | 02:05 |
|---|---|
| Temperatura | 17.7 ºC |
| Humedad | 66.7 % |
| Presión | 1019.5 hPa |
| Pluja | 0.0 mm |
| Velocidad viento | 0.8 km/h |
| Dirección viento | NNE |
| Radiación solar | 0.1 W/m² |
| Temperatura (ºC) | Humedad (%) | Presión (hPa) | Velocidad viento (km/h) | Precipitación (mm) | Radiación solar (W/m²) | |||||||||||||
|---|---|---|---|---|---|---|---|---|---|---|---|---|---|---|---|---|---|---|
| Hora UTC | Aire | Humedad | Presión | Vel. | Dir. | Vel. Max | Dir. | Intent. máx 5 min. | Rad. Sol. | |||||||||
| 00:05 | 19.2 | 61.3 | 1019.5 | 3.5 | W | 3.5 | W | 0.0 | 0.1 | |||||||||
| 00:10 | 19.0 | 61.9 | 1019.5 | 4.5 | NW | 14.2 | NW | 0.0 | 0.2 | |||||||||
| 00:15 | 19.3 | 60.6 | 1019.5 | 4.4 | NW | 11.5 | W | 0.0 | 0.2 | |||||||||
| 00:20 | 19.3 | 60.6 | 1019.6 | 4.4 | NW | 11.5 | WNW | 0.0 | 0.2 | |||||||||
| 00:25 | 19.2 | 61.3 | 1019.5 | 3.0 | NNW | 11.5 | NNW | 0.0 | 0.1 | |||||||||
| 00:30 | 19.0 | 61.6 | 1019.5 | 4.4 | NNE | 11.5 | NE | 0.0 | 0.2 | |||||||||
| 00:35 | 19.2 | 61.2 | 1019.4 | 3.0 | NNW | 8.8 | NNE | 0.0 | 0.1 | |||||||||
| 00:40 | 18.8 | 62.8 | 1019.4 | 3.1 | NW | 6.1 | NW | 0.0 | 0.2 | |||||||||
| 00:45 | 18.8 | 62.7 | 1019.4 | 1.7 | N | 6.1 | NNW | 0.0 | 0.2 | |||||||||
| 00:50 | 18.8 | 62.4 | 1019.5 | 4.6 | NNW | 14.2 | NW | 0.0 | 0.2 | |||||||||
| 00:55 | 18.9 | 62.0 | 1019.5 | 6.2 | NW | 14.2 | N | 0.0 | 0.2 | |||||||||
| 01:00 | 18.9 | 62.1 | 1019.5 | 5.6 | NNW | 14.2 | NW | 0.0 | 0.2 | |||||||||
| 01:05 | 18.9 | 62.1 | 1019.5 | 4.0 | NNW | 11.5 | NE | 0.0 | 0.1 | |||||||||
| 01:10 | 18.8 | 62.3 | 1019.5 | 2.3 | NW | 6.1 | WNW | 0.0 | 0.1 | |||||||||
| 01:15 | 18.7 | 62.4 | 1019.6 | 5.2 | NNW | 16.9 | NNW | 0.0 | 0.2 | |||||||||
| 01:20 | 18.9 | 61.9 | 1019.6 | 4.7 | NW | 14.2 | NW | 0.0 | 0.2 | |||||||||
| 01:25 | 18.9 | 61.9 | 1019.6 | 5.4 | NW | 11.5 | NNE | 0.0 | 0.2 | |||||||||
| 01:30 | 18.7 | 62.7 | 1019.6 | 1.0 | S | 6.1 | S | 0.0 | 0.2 | |||||||||
| 01:35 | 18.4 | 63.6 | 1019.6 | 1.4 | NNE | 6.1 | NW | 0.0 | 0.2 | |||||||||
| 01:40 | 18.4 | 63.8 | 1019.6 | 0.7 | NE | 6.1 | N | 0.0 | 0.1 | |||||||||
| 01:45 | 18.3 | 64.4 | 1019.6 | 2.0 | NNW | 11.5 | WNW | 0.0 | 0.2 | |||||||||
| 01:50 | 18.1 | 65.1 | 1019.6 | 1.5 | WNW | 6.1 | WNW | 0.0 | 0.2 | |||||||||
| 01:55 | 17.7 | 66.7 | 1019.6 | 1.1 | W | 6.1 | W | 0.0 | 0.1 | |||||||||
| 02:00 | 17.6 | 66.6 | 1019.5 | 0.3 | NNE | 6.1 | NNE | 0.0 | 0.2 | |||||||||
| 02:05 | 17.7 | 66.7 | 1019.5 | 0.8 | NNE | 6.1 | NNE | 0.0 | 0.1 | |||||||||
| Máxima | 19.3 | 66.7 | 1019.6 | 6.2 | NW | 16.9 | NNW | 0.0 | 0.2 | |||||||||
| Mínima | 17.6 | 60.6 | 1019.4 | |||||||||||||||
| Total | 0.0 | |||||||||||||||||